Time;durP1;ratioP1;P1;durP2;ratioP2;P2;SDS_P1;SDS_P2;PMS_P1;PMS_P2;Temp;Humidity;BMP_temperature;BMP_pressure;BME280_temperature;BME280_humidity;BME280_pressure;Samples;Min_cycle;Max_cycle;Signal;HPM_P1;HPM_P2
2023/10/11 01:16:26;;;;;;;14.93;7.05;;;;;;;;;;4918156;28;98789;-79
2023/10/11 01:18:53;;;;;;;14.18;6.40;;;;;;;;;;4957933;28;99350;-80
2023/10/11 01:21:19;;;;;;;12.75;6.13;;;;;;;;;;4950447;28;99015;-79
2023/10/11 01:23:46;;;;;;;10.15;5.18;;;;;;;;;;4953512;28;100061;-79
2023/10/11 01:26:15;;;;;;;12.27;5.88;;;;;;;;;;4954667;28;102257;-80
2023/10/11 01:28:44;;;;;;;11.90;5.60;;;;;;;;;;4947302;28;99723;-80
2023/10/11 01:31:12;;;;;;;14.85;5.97;;;;;;;;;;4964315;28;101980;-80
2023/10/11 01:33:43;;;;;;;12.60;6.00;;;;;;;;;;4938777;28;99997;-80
2023/10/11 01:36:15;;;;;;;14.35;6.97;;;;;;;;;;4948992;28;98627;-80
2023/10/11 01:38:48;;;;;;;12.93;6.35;;;;;;;;;;4967012;28;99881;-80
2023/10/11 01:41:15;;;;;;;14.70;6.03;;;;;;;;;;4946712;28;101555;-80
2023/10/11 01:43:45;;;;;;;14.15;6.90;;;;;;;;;;4958334;28;99653;-80
2023/10/11 01:46:16;;;;;;;16.25;7.32;;;;;;;;;;4939570;28;101987;-80
2023/10/11 01:48:44;;;;;;;11.32;5.15;;;;;;;;;;4953591;28;99572;-79
2023/10/11 01:51:11;;;;;;;;;;;;;;;;;;4965854;28;98580;-80
2023/10/11 01:53:37;;;;;;;14.50;6.88;;;;;;;;;;4956209;28;126394;-80
2023/10/11 01:56:05;;;;;;;13.95;6.07;;;;;;;;;;4943386;28;99343;-80
2023/10/11 01:58:37;;;;;;;15.35;6.72;;;;;;;;;;4943790;28;99952;-80
2023/10/11 02:01:05;;;;;;;13.82;6.07;;;;;;;;;;4949268;28;102060;-80
2023/10/11 02:03:32;;;;;;;17.50;5.63;;;;;;;;;;4949865;28;98495;-79
2023/10/11 02:06:04;;;;;;;15.45;6.35;;;;;;;;;;4945937;28;99291;-79
2023/10/11 02:08:36;;;;;;;13.38;5.63;;;;;;;;;;4946720;28;98649;-79
2023/10/11 02:11:05;;;;;;;13.15;5.72;;;;;;;;;;4931581;28;105456;-79
2023/10/11 02:13:33;;;;;;;15.85;7.43;;;;;;;;;;4937901;28;98386;-79
2023/10/11 02:16:00;;;;;;;17.70;7.55;;;;;;;;;;4943587;28;98862;-80
2023/10/11 02:18:28;;;;;;;16.13;6.57;;;;;;;;;;4950303;28;98747;-80
2023/10/11 02:20:55;;;;;;;14.20;7.25;;;;;;;;;;4946019;28;100383;-79
2023/10/11 02:23:25;;;;;;;11.75;5.93;;;;;;;;;;4945381;28;98504;-79
2023/10/11 02:25:52;;;;;;;12.70;6.50;;;;;;;;;;4962894;28;102193;-81
2023/10/11 02:28:21;;;;;;;15.02;6.65;;;;;;;;;;4957024;28;98686;-80
2023/10/11 02:30:49;;;;;;;15.77;6.50;;;;;;;;;;4960422;28;101581;-80
2023/10/11 02:33:20;;;;;;;17.25;7.50;;;;;;;;;;4954892;28;102013;-80
2023/10/11 02:35:57;;;;;;;14.70;7.50;;;;;;;;;;4961109;28;99328;-81
2023/10/11 02:38:25;;;;;;;14.18;6.10;;;;;;;;;;4947164;28;107377;-80
2023/10/11 02:40:58;;;;;;;11.45;5.43;;;;;;;;;;4949191;28;100366;-80
2023/10/11 02:43:26;;;;;;;15.45;6.10;;;;;;;;;;4948531;28;99370;-80
2023/10/11 02:45:52;;;;;;;13.30;6.10;;;;;;;;;;4957647;28;100031;-80
2023/10/11 02:48:19;;;;;;;12.25;5.07;;;;;;;;;;4963739;28;98612;-80
2023/10/11 02:50:54;;;;;;;12.50;5.85;;;;;;;;;;4958108;28;100287;-80
2023/10/11 02:53:21;;;;;;;13.88;6.40;;;;;;;;;;4957319;28;100320;-80
2023/10/11 02:55:57;;;;;;;14.30;5.65;;;;;;;;;;4941266;28;98532;-80
2023/10/11 02:58:26;;;;;;;11.32;5.47;;;;;;;;;;4943029;28;104881;-80
2023/10/11 03:00:58;;;;;;;12.52;5.63;;;;;;;;;;4949951;28;99109;-80
2023/10/11 03:03:44;;;;;;;11.88;5.47;;;;;;;;;;4947760;28;98507;-80
2023/10/11 03:06:12;;;;;;;9.98;4.85;;;;;;;;;;4961271;28;100065;-80
2023/10/11 03:08:40;;;;;;;12.48;5.43;;;;;;;;;;4967750;28;99063;-80
2023/10/11 03:11:09;;;;;;;10.13;5.00;;;;;;;;;;4950917;28;99819;-80
2023/10/11 03:13:44;;;;;;;9.93;5.00;;;;;;;;;;4957803;28;98989;-80
2023/10/11 03:16:16;;;;;;;11.32;4.63;;;;;;;;;;4945786;28;98625;-79
2023/10/11 03:18:46;;;;;;;9.93;4.60;;;;;;;;;;4948314;28;99996;-80
2023/10/11 03:21:20;;;;;;;10.40;4.57;;;;;;;;;;4936023;28;105360;-80
2023/10/11 03:23:47;;;;;;;;;;;;;;;;;;4949290;28;98844;-80
2023/10/11 03:28:57;;;;;;;13.27;5.97;;;;;;;;;;4925270;28;98428;-80
2023/10/11 03:31:28;;;;;;;11.55;5.38;;;;;;;;;;4941023;28;98462;-80
2023/10/11 03:33:59;;;;;;;13.55;5.28;;;;;;;;;;4960304;28;100453;-80
2023/10/11 03:36:35;;;;;;;12.63;6.20;;;;;;;;;;4959627;28;99703;-80
2023/10/11 03:39:08;;;;;;;15.18;5.90;;;;;;;;;;4950880;28;100246;-80
2023/10/11 03:41:36;;;;;;;12.90;5.47;;;;;;;;;;4945240;28;99636;-81
2023/10/11 03:44:12;;;;;;;10.75;4.95;;;;;;;;;;4959228;28;98777;-81
2023/10/11 03:46:38;;;;;;;11.48;5.18;;;;;;;;;;4953065;28;99081;-80
2023/10/11 03:49:36;;;;;;;10.45;5.00;;;;;;;;;;4963848;28;100300;-80
2023/10/11 03:52:01;;;;;;;14.35;7.10;;;;;;;;;;4964487;28;98618;-81
2023/10/11 03:54:29;;;;;;;11.77;5.70;;;;;;;;;;4951189;28;98990;-80
2023/10/11 03:56:56;;;;;;;14.65;6.97;;;;;;;;;;4955350;28;98590;-80
2023/10/11 03:59:26;;;;;;;11.18;4.90;;;;;;;;;;4960348;28;99055;-81
2023/10/11 04:01:53;;;;;;;10.15;4.55;;;;;;;;;;4945458;28;101414;-80
2023/10/11 04:04:21;;;;;;;15.95;6.78;;;;;;;;;;4935511;28;99213;-80
2023/10/11 04:06:51;;;;;;;15.18;6.90;;;;;;;;;;4967154;28;98826;-81
2023/10/11 04:09:22;;;;;;;13.85;6.20;;;;;;;;;;4967500;28;99408;-80
2023/10/11 04:11:55;;;;;;;12.20;6.43;;;;;;;;;;4950201;28;98846;-81
2023/10/11 04:14:39;;;;;;;14.23;6.47;;;;;;;;;;4964342;28;106300;-80
2023/10/11 04:17:07;;;;;;;15.00;6.57;;;;;;;;;;4951080;28;99249;-80
2023/10/11 04:19:35;;;;;;;15.77;7.75;;;;;;;;;;4962119;28;99391;-81
2023/10/11 04:22:12;;;;;;;13.15;6.00;;;;;;;;;;4949689;28;99558;-81
2023/10/11 04:24:40;;;;;;;17.85;7.43;;;;;;;;;;4931402;28;98632;-80
2023/10/11 04:29:50;;;;;;;13.60;6.57;;;;;;;;;;4961667;28;99077;-80
2023/10/11 04:33:01;;;;;;;12.50;6.43;;;;;;;;;;4967771;28;99008;-81
2023/10/11 04:35:21;;;;;;;13.43;5.70;;;;;;;;;;4959123;28;99404;-80
2023/10/11 04:37:54;;;;;;;13.07;5.35;;;;;;;;;;4937844;28;99628;-80
2023/10/11 04:43:08;;;;;;;12.57;6.32;;;;;;;;;;4951107;28;100609;-80
2023/10/11 04:45:45;;;;;;;15.32;7.05;;;;;;;;;;4951398;28;98520;-80
2023/10/11 04:48:15;;;;;;;14.80;7.82;;;;;;;;;;4964384;28;98654;-79
2023/10/11 04:50:44;;;;;;;;;;;;;;;;;;4962450;28;100389;-80
2023/10/11 04:53:18;;;;;;;15.15;6.75;;;;;;;;;;4963766;28;100367;-80
2023/10/11 04:56:09;;;;;;;12.70;5.80;;;;;;;;;;4934124;28;98511;-79
2023/10/11 04:58:42;;;;;;;13.65;6.38;;;;;;;;;;4961409;28;106411;-79
2023/10/11 05:01:11;;;;;;;15.18;7.05;;;;;;;;;;4954528;28;98922;-80
2023/10/11 05:03:39;;;;;;;13.98;7.30;;;;;;;;;;4961621;28;102192;-80
2023/10/11 05:06:13;;;;;;;14.13;6.25;;;;;;;;;;4948551;28;98505;-80
2023/10/11 05:09:01;;;;;;;14.95;7.63;;;;;;;;;;4967097;28;99489;-80
2023/10/11 05:11:42;;;;;;;16.58;7.65;;;;;;;;;;4952299;28;98943;-80
2023/10/11 05:19:45;;;;;;;15.02;6.82;;;;;;;;;;4946523;28;99990;-80
2023/10/11 05:22:29;;;;;;;14.07;6.88;;;;;;;;;;4953732;28;98461;-80
2023/10/11 05:32:48;;;;;;;18.40;9.10;;;;;;;;;;4937582;28;106668;-80
2023/10/11 05:51:32;;;;;;;11.75;6.30;;;;;;;;;;4966269;28;99216;-80
2023/10/11 05:53:59;;;;;;;18.15;7.40;;;;;;;;;;4953547;28;101163;-80
2023/10/11 05:56:33;;;;;;;16.65;8.20;;;;;;;;;;4938096;28;98531;-80
2023/10/11 05:59:04;;;;;;;15.23;7.05;;;;;;;;;;4959387;28;99111;-81
2023/10/11 06:01:31;;;;;;;15.63;7.88;;;;;;;;;;4942540;28;99428;-80
2023/10/11 06:04:02;;;;;;;17.02;7.43;;;;;;;;;;4946537;28;98755;-79
2023/10/11 06:06:38;;;;;;;15.55;7.57;;;;;;;;;;4962952;28;98685;-80
2023/10/11 06:09:05;;;;;;;18.35;8.43;;;;;;;;;;4957159;28;99175;-80
2023/10/11 06:11:36;;;;;;;16.17;8.52;;;;;;;;;;4950314;28;99348;-80
2023/10/11 06:14:04;;;;;;;17.05;8.98;;;;;;;;;;4946504;28;99139;-80
2023/10/11 06:16:37;;;;;;;15.55;7.15;;;;;;;;;;4953931;28;99058;-80
2023/10/11 06:19:16;;;;;;;20.33;9.52;;;;;;;;;;4965268;28;98692;-80
2023/10/11 06:21:58;;;;;;;15.20;7.45;;;;;;;;;;4951792;28;99362;-80
2023/10/11 06:24:30;;;;;;;18.67;8.65;;;;;;;;;;4947439;28;99296;-80
2023/10/11 06:27:11;;;;;;;17.77;8.73;;;;;;;;;;4960943;28;99482;-80
2023/10/11 06:29:39;;;;;;;18.48;8.10;;;;;;;;;;4944550;28;98393;-79
2023/10/11 06:32:11;;;;;;;;;;;;;;;;;;4961242;28;98613;-79
2023/10/11 06:34:47;;;;;;;20.50;8.85;;;;;;;;;;4968337;28;102406;-80
2023/10/11 06:37:18;;;;;;;17.70;9.32;;;;;;;;;;4937345;28;99290;-79
2023/10/11 06:42:23;;;;;;;14.55;6.80;;;;;;;;;;4947311;28;99603;-79
2023/10/11 06:44:51;;;;;;;16.67;8.75;;;;;;;;;;4936216;28;98575;-80
2023/10/11 06:47:19;;;;;;;16.17;7.03;;;;;;;;;;4959615;28;106080;-80
2023/10/11 06:49:49;;;;;;;16.40;7.35;;;;;;;;;;4945442;28;99183;-79
2023/10/11 06:52:19;;;;;;;16.73;8.15;;;;;;;;;;4948549;28;99004;-80
2023/10/11 06:54:47;;;;;;;18.20;8.25;;;;;;;;;;4942383;28;98851;-80
2023/10/11 06:57:17;;;;;;;16.15;7.85;;;;;;;;;;4948392;28;100591;-80
2023/10/11 06:59:43;;;;;;;18.02;8.93;;;;;;;;;;4949735;28;99228;-79
2023/10/11 07:02:17;;;;;;;19.90;9.52;;;;;;;;;;4944198;28;100580;-80
2023/10/11 07:04:50;;;;;;;19.58;8.90;;;;;;;;;;4951678;28;98864;-80
2023/10/11 07:07:18;;;;;;;20.45;8.52;;;;;;;;;;4963323;28;102063;-80
2023/10/11 07:09:56;;;;;;;21.52;10.75;;;;;;;;;;4956228;28;102005;-79
2023/10/11 07:12:39;;;;;;;17.27;8.63;;;;;;;;;;4930972;28;99900;-79
2023/10/11 07:15:09;;;;;;;15.45;7.63;;;;;;;;;;4956330;28;98717;-80
2023/10/11 07:17:36;;;;;;;20.83;9.65;;;;;;;;;;4940993;28;99378;-79
2023/10/11 07:20:47;;;;;;;21.90;9.90;;;;;;;;;;4960177;28;102106;-80
2023/10/11 07:22:50;;;;;;;21.50;9.70;;;;;;;;;;4947885;28;99176;-81
2023/10/11 07:25:36;;;;;;;16.63;7.28;;;;;;;;;;4937430;28;99296;-80
2023/10/11 07:28:05;;;;;;;12.13;5.63;;;;;;;;;;4929004;28;99432;-85
2023/10/11 07:30:37;;;;;;;18.75;6.28;;;;;;;;;;4930892;28;99332;-83
2023/10/11 07:33:04;;;;;;;13.13;5.45;;;;;;;;;;4968573;28;98519;-84
2023/10/11 07:35:33;;;;;;;10.15;5.05;;;;;;;;;;4962695;28;102224;-85
2023/10/11 07:38:00;;;;;;;12.52;5.18;;;;;;;;;;4957410;28;99462;-84
2023/10/11 07:40:45;;;;;;;11.02;5.18;;;;;;;;;;4952294;28;98793;-84
2023/10/11 07:43:16;;;;;;;9.68;4.65;;;;;;;;;;4958056;28;100214;-83
2023/10/11 07:45:47;;;;;;;11.70;4.88;;;;;;;;;;4947078;28;98437;-80
2023/10/11 07:48:16;;;;;;;11.07;5.05;;;;;;;;;;4966987;28;98583;-82
2023/10/11 07:50:46;;;;;;;11.35;4.70;;;;;;;;;;4967154;28;99279;-81
2023/10/11 07:53:13;;;;;;;8.77;4.53;;;;;;;;;;4943546;28;99508;-81
2023/10/11 07:55:45;;;;;;;11.55;4.78;;;;;;;;;;4963356;28;101327;-82
2023/10/11 07:58:11;;;;;;;11.38;4.88;;;;;;;;;;4955063;28;101257;-81
2023/10/11 08:00:41;;;;;;;11.05;5.03;;;;;;;;;;4951595;28;98523;-82
2023/10/11 08:03:11;;;;;;;9.80;4.57;;;;;;;;;;4937010;28;100693;-82
2023/10/11 08:05:53;;;;;;;10.88;4.93;;;;;;;;;;4951218;28;98996;-82
2023/10/11 08:08:21;;;;;;;11.23;5.50;;;;;;;;;;4946852;28;103537;-82
2023/10/11 08:10:52;;;;;;;9.95;4.60;;;;;;;;;;4957998;28;97813;-82
2023/10/11 08:13:25;;;;;;;11.32;4.97;;;;;;;;;;4932997;28;98496;-84
2023/10/11 08:15:58;;;;;;;9.38;4.80;;;;;;;;;;4953704;28;99028;-82
2023/10/11 08:18:26;;;;;;;;;;;;;;;;;;4954648;28;103175;-82
2023/10/11 08:20:54;;;;;;;10.18;4.68;;;;;;;;;;4961726;28;102837;-83
2023/10/11 08:23:29;;;;;;;9.88;4.75;;;;;;;;;;4933939;28;99105;-82
2023/10/11 08:25:57;;;;;;;10.13;4.82;;;;;;;;;;4960405;28;99127;-80
2023/10/11 08:28:34;;;;;;;8.63;3.75;;;;;;;;;;4940874;28;98763;-80
2023/10/11 08:31:01;;;;;;;8.93;4.40;;;;;;;;;;4949276;28;99228;-81
2023/10/11 08:33:31;;;;;;;11.73;4.68;;;;;;;;;;4931793;28;99094;-80
2023/10/11 08:35:58;;;;;;;9.88;4.75;;;;;;;;;;4944310;28;98722;-81
2023/10/11 08:38:25;;;;;;;;;;;;;;;;;;4953196;28;98933;-80
2023/10/11 08:40:58;;;;;;;9.15;4.57;;;;;;;;;;4951328;28;98878;-80
2023/10/11 08:43:25;;;;;;;10.55;5.20;;;;;;;;;;4960905;28;99774;-81
2023/10/11 08:46:05;;;;;;;;;;;;;;;;;;4964685;28;100274;-81
2023/10/11 08:48:38;;;;;;;11.50;5.10;;;;;;;;;;4954391;28;105464;-81
2023/10/11 08:51:10;;;;;;;12.70;5.95;;;;;;;;;;4960165;28;100159;-81
2023/10/11 08:53:38;;;;;;;10.07;4.75;;;;;;;;;;4965994;28;98668;-81
2023/10/11 08:56:05;;;;;;;;;;;;;;;;;;4958252;28;98952;-81
2023/10/11 08:58:33;;;;;;;10.73;4.70;;;;;;;;;;4954453;28;112445;-80
2023/10/11 09:00:59;;;;;;;11.85;4.93;;;;;;;;;;4962621;28;97959;-81
2023/10/11 09:03:31;;;;;;;10.60;5.47;;;;;;;;;;4943458;28;98449;-80
2023/10/11 09:05:59;;;;;;;9.48;4.85;;;;;;;;;;4967378;28;100548;-78
2023/10/11 09:08:27;;;;;;;12.13;5.50;;;;;;;;;;4971764;28;99236;-80
2023/10/11 09:11:06;;;;;;;11.93;5.35;;;;;;;;;;4962424;28;102502;-80
2023/10/11 09:13:36;;;;;;;12.88;6.82;;;;;;;;;;4953029;28;98885;-79
2023/10/11 09:16:11;;;;;;;12.32;5.88;;;;;;;;;;4956392;28;98613;-79
2023/10/11 09:18:38;;;;;;;11.68;5.63;;;;;;;;;;4939622;28;102273;-79
2023/10/11 09:21:15;;;;;;;11.10;5.75;;;;;;;;;;4925372;28;99241;-81
2023/10/11 09:23:51;;;;;;;11.52;5.68;;;;;;;;;;4916277;28;98746;-80
2023/10/11 09:26:32;;;;;;;11.40;5.70;;;;;;;;;;4954459;28;98441;-79
2023/10/11 09:29:08;;;;;;;11.35;5.68;;;;;;;;;;4947218;28;98857;-79
2023/10/11 09:31:45;;;;;;;12.18;5.93;;;;;;;;;;4943333;28;98715;-80
2023/10/11 09:34:18;;;;;;;11.27;5.50;;;;;;;;;;4948994;28;99234;-80
2023/10/11 09:36:45;;;;;;;12.18;5.35;;;;;;;;;;4971771;28;99796;-80
2023/10/11 09:39:16;;;;;;;10.15;5.20;;;;;;;;;;4971087;28;99297;-81
2023/10/11 09:41:45;;;;;;;14.68;6.88;;;;;;;;;;4952021;28;98645;-81
2023/10/11 09:44:14;;;;;;;11.93;6.05;;;;;;;;;;4953109;28;100253;-80
2023/10/11 09:46:43;;;;;;;11.07;5.47;;;;;;;;;;4938716;28;99237;-80
2023/10/11 09:49:13;;;;;;;10.27;5.57;;;;;;;;;;4965771;28;99080;-80
2023/10/11 09:51:43;;;;;;;11.50;5.22;;;;;;;;;;4961715;28;100106;-80
2023/10/11 09:54:12;;;;;;;10.68;5.15;;;;;;;;;;4943614;28;99068;-81
2023/10/11 09:56:48;;;;;;;12.27;5.68;;;;;;;;;;4949343;28;98953;-80
2023/10/11 09:59:24;;;;;;;12.77;5.50;;;;;;;;;;4944933;28;99983;-80
2023/10/11 10:01:51;;;;;;;12.43;5.60;;;;;;;;;;4945153;28;99150;-80
2023/10/11 10:04:20;;;;;;;11.23;5.60;;;;;;;;;;4947243;28;98954;-80
2023/10/11 10:07:07;;;;;;;12.70;5.85;;;;;;;;;;4964120;28;100109;-80
2023/10/11 10:09:48;;;;;;;12.00;5.78;;;;;;;;;;4965110;28;98974;-80
2023/10/11 10:12:20;;;;;;;11.45;5.78;;;;;;;;;;4940370;28;99295;-82
2023/10/11 10:15:00;;;;;;;12.15;5.90;;;;;;;;;;4948090;28;101732;-82
2023/10/11 10:17:30;;;;;;;13.07;5.75;;;;;;;;;;4948595;28;98157;-83
2023/10/11 10:20:16;;;;;;;11.88;5.80;;;;;;;;;;4946048;28;99295;-82
2023/10/11 10:23:04;;;;;;;11.45;5.72;;;;;;;;;;4936839;28;98483;-82
2023/10/11 10:25:30;;;;;;;21.42;6.18;;;;;;;;;;4959371;28;99507;-83
2023/10/11 10:27:57;;;;;;;16.38;6.35;;;;;;;;;;4940045;28;99154;-82
2023/10/11 10:30:27;;;;;;;17.83;6.13;;;;;;;;;;4952987;28;98868;-82
2023/10/11 10:33:13;;;;;;;14.32;6.03;;;;;;;;;;4953815;28;98858;-81
2023/10/11 10:35:43;;;;;;;13.82;5.88;;;;;;;;;;4957172;28;101909;-80
2023/10/11 10:38:09;;;;;;;11.65;5.47;;;;;;;;;;4924236;28;99186;-81
2023/10/11 10:40:45;;;;;;;13.02;6.35;;;;;;;;;;4935657;28;98754;-81
2023/10/11 10:43:23;;;;;;;14.10;6.30;;;;;;;;;;4949087;28;98434;-81
2023/10/11 10:45:51;;;;;;;18.50;6.38;;;;;;;;;;4948571;28;99019;-82
2023/10/11 10:48:19;;;;;;;12.15;5.55;;;;;;;;;;4954695;28;100272;-82
2023/10/11 10:50:50;;;;;;;13.15;6.35;;;;;;;;;;4951102;28;99338;-82
2023/10/11 10:53:20;;;;;;;14.63;6.50;;;;;;;;;;4947841;28;99677;-82
2023/10/11 10:55:47;;;;;;;13.52;6.22;;;;;;;;;;4941363;28;99265;-82
2023/10/11 10:58:20;;;;;;;13.02;5.97;;;;;;;;;;4960788;28;99048;-82
2023/10/11 11:00:53;;;;;;;11.23;5.88;;;;;;;;;;4935850;28;100094;-83
2023/10/11 11:03:21;;;;;;;15.27;6.28;;;;;;;;;;4946856;28;99363;-82
2023/10/11 11:05:58;;;;;;;13.18;5.38;;;;;;;;;;4960674;28;99063;-81
2023/10/11 11:08:27;;;;;;;11.90;5.75;;;;;;;;;;4959032;28;102860;-82
2023/10/11 11:11:00;;;;;;;10.82;5.55;;;;;;;;;;4934014;28;98842;-81
2023/10/11 11:13:30;;;;;;;10.88;4.95;;;;;;;;;;4949606;28;99946;-81
2023/10/11 11:15:56;;;;;;;11.70;5.15;;;;;;;;;;4953791;28;100037;-82
2023/10/11 11:18:31;;;;;;;11.35;5.47;;;;;;;;;;4962477;28;98578;-81
2023/10/11 11:21:02;;;;;;;11.98;5.70;;;;;;;;;;4957139;28;100665;-82
2023/10/11 11:23:31;;;;;;;10.98;5.07;;;;;;;;;;4945745;28;99100;-82
2023/10/11 11:26:04;;;;;;;14.43;5.43;;;;;;;;;;4963128;28;99453;-81
2023/10/11 11:28:39;;;;;;;10.82;5.13;;;;;;;;;;4962021;28;100367;-81
2023/10/11 11:31:09;;;;;;;;;;;;;;;;;;4956610;28;99029;-82
2023/10/11 11:33:36;;;;;;;12.40;4.68;;;;;;;;;;4959489;28;98577;-82
2023/10/11 11:36:10;;;;;;;11.38;5.10;;;;;;;;;;4958777;28;99247;-81
2023/10/11 11:38:45;;;;;;;11.95;5.10;;;;;;;;;;4957464;28;98863;-82
2023/10/11 11:41:15;;;;;;;11.77;5.25;;;;;;;;;;4936368;28;99612;-82
2023/10/11 11:43:53;;;;;;;10.82;5.25;;;;;;;;;;4953053;28;98491;-78
2023/10/11 11:46:20;;;;;;;10.52;5.35;;;;;;;;;;4946592;28;98924;-82
2023/10/11 11:48:46;;;;;;;8.85;4.85;;;;;;;;;;4951515;28;99327;-82
2023/10/11 11:51:16;;;;;;;12.02;4.68;;;;;;;;;;4952967;28;105618;-82
2023/10/11 11:53:43;;;;;;;9.07;4.90;;;;;;;;;;4944001;28;98790;-81
2023/10/11 11:56:11;;;;;;;9.90;4.65;;;;;;;;;;4942519;28;99231;-82
2023/10/11 11:58:44;;;;;;;10.27;4.78;;;;;;;;;;4941632;28;97854;-82
2023/10/11 12:01:26;;;;;;;9.85;5.28;;;;;;;;;;4942609;28;99141;-82
2023/10/11 12:03:54;;;;;;;10.23;4.57;;;;;;;;;;4943600;28;101354;-81
2023/10/11 12:06:22;;;;;;;9.38;5.05;;;;;;;;;;4947571;28;99336;-82
2023/10/11 12:08:57;;;;;;;10.00;4.70;;;;;;;;;;4967290;28;99692;-82
2023/10/11 12:11:29;;;;;;;8.93;4.78;;;;;;;;;;4952314;28;99786;-82
2023/10/11 12:13:57;;;;;;;9.32;4.70;;;;;;;;;;4961942;28;99980;-82
2023/10/11 12:16:24;;;;;;;10.30;4.47;;;;;;;;;;4935960;28;102129;-82
2023/10/11 12:19:03;;;;;;;9.52;5.00;;;;;;;;;;4937348;28;98894;-82
2023/10/11 12:21:33;;;;;;;8.73;4.25;;;;;;;;;;4949291;28;98649;-82
2023/10/11 12:24:01;;;;;;;9.23;4.72;;;;;;;;;;4957059;28;98394;-82
2023/10/11 12:26:33;;;;;;;9.80;4.25;;;;;;;;;;4968035;28;98598;-82
2023/10/11 12:29:04;;;;;;;9.57;4.63;;;;;;;;;;4969559;28;99075;-82
2023/10/11 12:31:30;;;;;;;8.98;4.57;;;;;;;;;;4974243;28;99908;-82
2023/10/11 12:33:57;;;;;;;9.75;5.10;;;;;;;;;;4953901;28;99508;-82
2023/10/11 12:36:28;;;;;;;10.05;4.80;;;;;;;;;;4937954;28;99183;-83
2023/10/11 12:38:55;;;;;;;9.90;4.70;;;;;;;;;;4927815;28;98564;-82
2023/10/11 12:41:21;;;;;;;9.23;4.93;;;;;;;;;;4939348;28;98955;-82
2023/10/11 12:43:49;;;;;;;10.43;4.80;;;;;;;;;;4962186;28;99251;-82
2023/10/11 12:46:17;;;;;;;12.55;5.10;;;;;;;;;;4950157;28;99460;-82
2023/10/11 12:48:54;;;;;;;10.63;4.72;;;;;;;;;;4962794;28;99323;-82
2023/10/11 12:51:23;;;;;;;10.20;4.72;;;;;;;;;;4966517;28;98569;-82
2023/10/11 12:53:54;;;;;;;;;;;;;;;;;;4965454;28;98963;-82
2023/10/11 12:56:22;;;;;;;10.38;4.80;;;;;;;;;;4937856;28;104572;-82
2023/10/11 12:58:50;;;;;;;10.30;5.20;;;;;;;;;;4962426;28;98910;-82
2023/10/11 13:01:25;;;;;;;9.07;4.57;;;;;;;;;;4950583;28;98677;-82
2023/10/11 13:04:05;;;;;;;11.25;4.90;;;;;;;;;;4946676;28;98973;-82
2023/10/11 13:06:36;;;;;;;8.95;4.38;;;;;;;;;;4965541;28;98637;-82
2023/10/11 13:09:14;;;;;;;9.52;4.75;;;;;;;;;;4967194;28;98505;-82
2023/10/11 13:11:44;;;;;;;10.32;4.97;;;;;;;;;;4949344;28;99043;-82
2023/10/11 13:14:21;;;;;;;9.60;4.88;;;;;;;;;;4965789;28;98076;-83
2023/10/11 13:16:48;;;;;;;11.00;5.30;;;;;;;;;;4932134;28;98676;-82
2023/10/11 13:19:18;;;;;;;9.48;4.97;;;;;;;;;;4940481;28;98685;-82
2023/10/11 13:21:45;;;;;;;10.77;4.80;;;;;;;;;;4945488;28;99312;-82
2023/10/11 13:24:12;;;;;;;;;;;;;;;;;;4955896;28;99296;-82
2023/10/11 13:26:43;;;;;;;11.02;4.70;;;;;;;;;;4967575;28;101016;-82
2023/10/11 13:29:16;;;;;;;11.25;5.85;;;;;;;;;;4958391;28;98746;-82
2023/10/11 13:31:49;;;;;;;10.57;5.05;;;;;;;;;;4947202;28;101099;-82
2023/10/11 13:34:16;;;;;;;10.50;4.97;;;;;;;;;;4955329;28;98581;-82
2023/10/11 13:36:43;;;;;;;10.88;5.22;;;;;;;;;;4962489;28;99880;-82
2023/10/11 13:39:25;;;;;;;8.85;4.63;;;;;;;;;;4965819;28;97776;-82
2023/10/11 13:41:53;;;;;;;12.20;5.28;;;;;;;;;;4972797;28;98864;-82
2023/10/11 13:44:21;;;;;;;12.10;5.80;;;;;;;;;;4959140;28;104028;-82
2023/10/11 13:46:55;;;;;;;11.77;5.18;;;;;;;;;;4964541;28;99783;-82
2023/10/11 13:49:26;;;;;;;10.82;5.28;;;;;;;;;;4969480;28;100849;-82
2023/10/11 13:51:54;;;;;;;11.00;4.72;;;;;;;;;;4966784;28;99310;-83
2023/10/11 13:54:38;;;;;;;10.90;4.90;;;;;;;;;;4948817;28;98943;-83
2023/10/11 13:57:07;;;;;;;10.98;5.60;;;;;;;;;;4951560;28;98764;-83
2023/10/11 13:59:37;;;;;;;11.68;5.40;;;;;;;;;;4960082;28;100263;-82
2023/10/11 14:02:52;;;;;;;9.65;4.80;;;;;;;;;;4946032;28;99170;-81
2023/10/11 14:05:13;;;;;;;11.60;5.35;;;;;;;;;;4932024;28;98415;-81
2023/10/11 14:07:49;;;;;;;11.07;5.22;;;;;;;;;;4960004;28;98485;-81
2023/10/11 14:10:22;;;;;;;10.20;4.80;;;;;;;;;;4957951;28;98793;-81
2023/10/11 14:12:49;;;;;;;10.43;5.65;;;;;;;;;;4950324;28;102949;-81
2023/10/11 14:15:18;;;;;;;10.30;4.95;;;;;;;;;;4961671;28;98563;-81
2023/10/11 14:17:48;;;;;;;11.35;5.65;;;;;;;;;;4945454;28;99899;-81
2023/10/11 14:20:19;;;;;;;12.45;5.35;;;;;;;;;;4961559;28;100003;-81
2023/10/11 14:22:46;;;;;;;11.40;5.32;;;;;;;;;;4944054;28;98502;-81
2023/10/11 14:25:13;;;;;;;11.02;4.93;;;;;;;;;;4957055;28;99379;-80
2023/10/11 14:27:39;;;;;;;11.55;5.20;;;;;;;;;;4965286;28;98905;-81
2023/10/11 14:30:16;;;;;;;11.27;5.20;;;;;;;;;;4949444;28;99294;-81
2023/10/11 14:32:46;;;;;;;10.68;5.03;;;;;;;;;;4947136;28;99559;-81
2023/10/11 14:35:14;;;;;;;10.18;5.05;;;;;;;;;;4956712;28;98633;-81
2023/10/11 14:37:41;;;;;;;10.73;4.75;;;;;;;;;;4925143;28;99303;-82
2023/10/11 14:40:14;;;;;;;11.65;5.60;;;;;;;;;;4949340;28;100229;-82
2023/10/11 14:42:41;;;;;;;11.30;5.10;;;;;;;;;;4956970;28;99267;-82
2023/10/11 14:45:11;;;;;;;12.80;5.43;;;;;;;;;;4948321;28;98808;-82
2023/10/11 14:47:38;;;;;;;10.25;4.93;;;;;;;;;;4944524;28;99899;-82
2023/10/11 14:50:11;;;;;;;11.93;5.63;;;;;;;;;;4940794;28;98727;-83
2023/10/11 14:52:39;;;;;;;10.00;4.88;;;;;;;;;;4946593;28;99818;-82
2023/10/11 14:55:09;;;;;;;10.40;4.68;;;;;;;;;;4941185;28;98253;-81
2023/10/11 14:57:35;;;;;;;10.27;5.13;;;;;;;;;;4945082;28;99712;-82
2023/10/11 15:00:06;;;;;;;10.25;5.35;;;;;;;;;;4941077;28;100323;-82
2023/10/11 15:02:33;;;;;;;11.55;5.22;;;;;;;;;;4944072;28;99668;-82
2023/10/11 15:04:59;;;;;;;10.85;5.55;;;;;;;;;;4955368;28;99828;-82
2023/10/11 15:07:26;;;;;;;10.25;5.20;;;;;;;;;;4962666;28;100635;-82
2023/10/11 15:09:52;;;;;;;9.10;5.28;;;;;;;;;;4943022;28;101446;-82
2023/10/11 15:12:20;;;;;;;11.40;5.30;;;;;;;;;;4946847;28;99209;-82
2023/10/11 15:14:47;;;;;;;10.90;5.68;;;;;;;;;;4952399;28;98953;-81
2023/10/11 15:17:14;;;;;;;12.27;6.05;;;;;;;;;;4948643;28;99344;-81
2023/10/11 15:19:43;;;;;;;12.32;5.90;;;;;;;;;;4946229;28;99359;-81
2023/10/11 15:22:12;;;;;;;11.23;5.72;;;;;;;;;;4961670;28;98582;-81
2023/10/11 15:24:39;;;;;;;11.45;5.60;;;;;;;;;;4950705;28;101059;-82
2023/10/11 15:27:06;;;;;;;10.52;5.53;;;;;;;;;;4963960;28;99905;-82
2023/10/11 15:29:33;;;;;;;11.25;5.60;;;;;;;;;;4958334;28;98869;-81
2023/10/11 15:31:59;;;;;;;10.40;5.60;;;;;;;;;;4945277;28;99111;-80
2023/10/11 15:34:26;;;;;;;10.35;5.65;;;;;;;;;;4954836;28;99345;-81
2023/10/11 15:36:53;;;;;;;9.88;5.70;;;;;;;;;;4947790;28;99476;-81
2023/10/11 15:39:20;;;;;;;11.27;6.00;;;;;;;;;;4956388;28;99185;-81
2023/10/11 15:41:47;;;;;;;10.50;5.63;;;;;;;;;;4964446;28;98605;-81
2023/10/11 15:44:15;;;;;;;10.63;5.60;;;;;;;;;;4963861;28;99963;-81
2023/10/11 15:46:42;;;;;;;10.05;5.15;;;;;;;;;;4957622;28;99631;-81
2023/10/11 15:49:09;;;;;;;10.98;5.57;;;;;;;;;;4966583;28;98588;-81
2023/10/11 15:51:38;;;;;;;10.93;5.88;;;;;;;;;;4947023;28;99931;-81
2023/10/11 15:54:07;;;;;;;12.27;5.85;;;;;;;;;;4942242;28;98515;-82
2023/10/11 15:56:34;;;;;;;11.10;6.25;;;;;;;;;;4953470;28;99010;-80
2023/10/11 15:59:00;;;;;;;11.90;5.78;;;;;;;;;;4940449;28;98848;-81
2023/10/11 16:01:27;;;;;;;13.63;6.65;;;;;;;;;;4937526;28;98538;-80
2023/10/11 16:03:55;;;;;;;14.15;7.05;;;;;;;;;;4943339;28;100286;-78
2023/10/11 16:06:24;;;;;;;14.40;7.90;;;;;;;;;;4967730;28;99401;-81
2023/10/11 16:08:52;;;;;;;16.50;7.97;;;;;;;;;;4966281;28;98337;-81
2023/10/11 16:11:20;;;;;;;14.70;7.90;;;;;;;;;;4950945;28;105155;-81
2023/10/11 16:13:48;;;;;;;18.05;8.90;;;;;;;;;;4958854;28;99017;-81
2023/10/11 16:16:16;;;;;;;15.55;9.18;;;;;;;;;;4940093;28;100637;-81
2023/10/11 16:18:47;;;;;;;21.65;10.10;;;;;;;;;;4951484;28;99144;-81
2023/10/11 16:21:14;;;;;;;17.25;9.25;;;;;;;;;;4952610;28;98930;-81
2023/10/11 16:23:42;;;;;;;19.15;10.00;;;;;;;;;;4954063;28;98891;-81
2023/10/11 16:26:10;;;;;;;19.20;9.70;;;;;;;;;;4964439;28;99814;-81
2023/10/11 16:28:38;;;;;;;18.05;10.10;;;;;;;;;;4949685;28;99072;-81
2023/10/11 16:31:06;;;;;;;17.25;9.85;;;;;;;;;;4950807;28;98919;-81
2023/10/11 16:33:32;;;;;;;16.75;10.13;;;;;;;;;;4957941;28;100886;-81
2023/10/11 16:36:03;;;;;;;17.35;9.75;;;;;;;;;;4973286;28;98617;-81
2023/10/11 16:38:33;;;;;;;15.45;8.82;;;;;;;;;;4970606;28;99116;-81
2023/10/11 16:41:04;;;;;;;14.23;7.38;;;;;;;;;;4967872;28;99554;-82
2023/10/11 16:43:32;;;;;;;14.82;8.52;;;;;;;;;;4965948;28;99540;-81
2023/10/11 16:45:58;;;;;;;;;;;;;;;;;;4963755;28;105234;-81
2023/10/11 16:48:28;;;;;;;14.77;8.00;;;;;;;;;;4952626;28;98598;-82